sensor_id;sensor_type;location;lat;lon;timestamp;P1;durP1;ratioP1;P2;durP2;ratioP2
77018;SDS011;66044;53.142;17.962;2022-12-18T00:01:28;58.80;;;18.90;;
77018;SDS011;66044;53.142;17.962;2022-12-18T00:04:01;63.70;;;19.70;;
77018;SDS011;66044;53.142;17.962;2022-12-18T00:06:29;46.30;;;17.30;;
77018;SDS011;66044;53.142;17.962;2022-12-18T00:08:57;47.80;;;18.10;;
77018;SDS011;66044;53.142;17.962;2022-12-18T00:11:24;37.00;;;15.40;;
77018;SDS011;66044;53.142;17.962;2022-12-18T00:13:53;56.40;;;21.40;;
77018;SDS011;66044;53.142;17.962;2022-12-18T00:16:21;37.20;;;15.30;;
77018;SDS011;66044;53.142;17.962;2022-12-18T00:18:50;33.30;;;11.10;;
77018;SDS011;66044;53.142;17.962;2022-12-18T00:21:19;31.10;;;11.40;;
77018;SDS011;66044;53.142;17.962;2022-12-18T00:23:46;40.40;;;15.80;;
77018;SDS011;66044;53.142;17.962;2022-12-18T00:26:15;47.90;;;16.40;;
77018;SDS011;66044;53.142;17.962;2022-12-18T00:28:49;41.80;;;14.70;;
77018;SDS011;66044;53.142;17.962;2022-12-18T00:31:18;40.30;;;15.20;;
77018;SDS011;66044;53.142;17.962;2022-12-18T00:33:47;39.20;;;13.80;;
77018;SDS011;66044;53.142;17.962;2022-12-18T00:36:14;55.00;;;18.10;;
77018;SDS011;66044;53.142;17.962;2022-12-18T00:38:43;40.00;;;13.60;;
77018;SDS011;66044;53.142;17.962;2022-12-18T00:41:11;26.20;;;9.40;;
77018;SDS011;66044;53.142;17.962;2022-12-18T00:43:39;56.20;;;16.20;;
77018;SDS011;66044;53.142;17.962;2022-12-18T00:46:06;74.80;;;19.40;;
77018;SDS011;66044;53.142;17.962;2022-12-18T00:48:32;63.20;;;17.80;;
77018;SDS011;66044;53.142;17.962;2022-12-18T00:50:59;60.20;;;18.00;;
77018;SDS011;66044;53.142;17.962;2022-12-18T00:53:25;63.30;;;18.40;;
77018;SDS011;66044;53.142;17.962;2022-12-18T00:55:52;52.80;;;16.80;;
77018;SDS011;66044;53.142;17.962;2022-12-18T00:58:18;52.80;;;18.70;;
77018;SDS011;66044;53.142;17.962;2022-12-18T01:00:45;45.90;;;17.40;;
77018;SDS011;66044;53.142;17.962;2022-12-18T01:03:14;33.90;;;14.10;;
77018;SDS011;66044;53.142;17.962;2022-12-18T01:05:41;28.50;;;11.30;;
77018;SDS011;66044;53.142;17.962;2022-12-18T01:08:08;41.70;;;16.00;;
77018;SDS011;66044;53.142;17.962;2022-12-18T01:10:35;40.10;;;15.50;;
77018;SDS011;66044;53.142;17.962;2022-12-18T01:13:02;41.30;;;16.50;;
77018;SDS011;66044;53.142;17.962;2022-12-18T01:15:28;27.80;;;10.50;;
77018;SDS011;66044;53.142;17.962;2022-12-18T01:17:55;40.50;;;13.40;;
77018;SDS011;66044;53.142;17.962;2022-12-18T01:20:21;40.40;;;13.00;;
77018;SDS011;66044;53.142;17.962;2022-12-18T01:22:48;62.20;;;17.20;;
77018;SDS011;66044;53.142;17.962;2022-12-18T01:25:14;79.80;;;19.50;;
77018;SDS011;66044;53.142;17.962;2022-12-18T01:27:41;56.90;;;17.60;;
77018;SDS011;66044;53.142;17.962;2022-12-18T01:30:07;38.70;;;13.40;;
77018;SDS011;66044;53.142;17.962;2022-12-18T01:32:34;30.50;;;13.40;;
77018;SDS011;66044;53.142;17.962;2022-12-18T01:35:00;38.30;;;15.50;;
77018;SDS011;66044;53.142;17.962;2022-12-18T01:37:27;43.10;;;17.20;;
77018;SDS011;66044;53.142;17.962;2022-12-18T01:39:53;44.70;;;16.80;;
77018;SDS011;66044;53.142;17.962;2022-12-18T01:42:23;37.90;;;14.70;;
77018;SDS011;66044;53.142;17.962;2022-12-18T01:44:52;41.20;;;15.40;;
77018;SDS011;66044;53.142;17.962;2022-12-18T01:50:07;31.10;;;11.80;;
77018;SDS011;66044;53.142;17.962;2022-12-18T01:52:39;36.10;;;13.00;;
77018;SDS011;66044;53.142;17.962;2022-12-18T01:55:09;33.70;;;11.70;;
77018;SDS011;66044;53.142;17.962;2022-12-18T01:57:37;56.10;;;16.10;;
77018;SDS011;66044;53.142;17.962;2022-12-18T02:00:09;54.10;;;17.10;;
77018;SDS011;66044;53.142;17.962;2022-12-18T02:02:39;49.10;;;15.20;;
77018;SDS011;66044;53.142;17.962;2022-12-18T02:05:06;42.10;;;13.20;;
77018;SDS011;66044;53.142;17.962;2022-12-18T02:12:48;27.20;;;11.20;;
77018;SDS011;66044;53.142;17.962;2022-12-18T02:15:33;24.30;;;9.60;;
77018;SDS011;66044;53.142;17.962;2022-12-18T02:18:07;21.50;;;9.40;;
77018;SDS011;66044;53.142;17.962;2022-12-18T02:20:48;34.10;;;12.50;;
77018;SDS011;66044;53.142;17.962;2022-12-18T02:25:59;30.30;;;10.80;;
77018;SDS011;66044;53.142;17.962;2022-12-18T02:28:35;29.60;;;11.70;;
77018;SDS011;66044;53.142;17.962;2022-12-18T02:31:07;31.90;;;12.00;;
77018;SDS011;66044;53.142;17.962;2022-12-18T02:33:37;32.30;;;12.00;;
77018;SDS011;66044;53.142;17.962;2022-12-18T02:36:06;27.60;;;11.90;;
77018;SDS011;66044;53.142;17.962;2022-12-18T02:38:34;23.30;;;9.80;;
77018;SDS011;66044;53.142;17.962;2022-12-18T02:41:01;25.00;;;9.20;;
77018;SDS011;66044;53.142;17.962;2022-12-18T02:43:29;25.40;;;9.50;;
77018;SDS011;66044;53.142;17.962;2022-12-18T02:45:57;31.80;;;9.80;;
77018;SDS011;66044;53.142;17.962;2022-12-18T02:48:29;31.40;;;9.00;;
77018;SDS011;66044;53.142;17.962;2022-12-18T02:51:21;47.40;;;13.80;;
77018;SDS011;66044;53.142;17.962;2022-12-18T02:53:59;50.20;;;14.30;;
77018;SDS011;66044;53.142;17.962;2022-12-18T02:56:35;41.30;;;11.30;;
77018;SDS011;66044;53.142;17.962;2022-12-18T02:59:09;44.30;;;12.30;;
77018;SDS011;66044;53.142;17.962;2022-12-18T03:04:43;32.30;;;11.10;;
77018;SDS011;66044;53.142;17.962;2022-12-18T03:07:17;22.70;;;8.90;;
77018;SDS011;66044;53.142;17.962;2022-12-18T03:09:48;27.80;;;10.50;;
77018;SDS011;66044;53.142;17.962;2022-12-18T03:15:04;20.40;;;8.10;;
77018;SDS011;66044;53.142;17.962;2022-12-18T03:17:33;25.10;;;8.80;;
77018;SDS011;66044;53.142;17.962;2022-12-18T03:20:11;25.30;;;9.10;;
77018;SDS011;66044;53.142;17.962;2022-12-18T03:22:43;22.50;;;7.90;;
77018;SDS011;66044;53.142;17.962;2022-12-18T03:25:15;21.00;;;7.30;;
77018;SDS011;66044;53.142;17.962;2022-12-18T03:27:46;27.00;;;9.30;;
77018;SDS011;66044;53.142;17.962;2022-12-18T03:30:17;34.50;;;8.80;;
77018;SDS011;66044;53.142;17.962;2022-12-18T03:32:46;39.30;;;10.90;;
77018;SDS011;66044;53.142;17.962;2022-12-18T03:35:21;39.50;;;11.00;;
77018;SDS011;66044;53.142;17.962;2022-12-18T03:37:51;30.40;;;10.30;;
77018;SDS011;66044;53.142;17.962;2022-12-18T03:40:19;30.60;;;10.00;;
77018;SDS011;66044;53.142;17.962;2022-12-18T03:42:51;28.60;;;9.90;;
77018;SDS011;66044;53.142;17.962;2022-12-18T03:45:27;25.20;;;10.20;;
77018;SDS011;66044;53.142;17.962;2022-12-18T03:48:05;19.10;;;7.50;;
77018;SDS011;66044;53.142;17.962;2022-12-18T03:50:46;21.40;;;8.10;;
77018;SDS011;66044;53.142;17.962;2022-12-18T03:56:20;23.90;;;8.60;;
77018;SDS011;66044;53.142;17.962;2022-12-18T03:58:50;24.90;;;9.90;;
77018;SDS011;66044;53.142;17.962;2022-12-18T04:01:19;26.70;;;10.00;;
77018;SDS011;66044;53.142;17.962;2022-12-18T04:03:50;20.90;;;6.60;;
77018;SDS011;66044;53.142;17.962;2022-12-18T04:06:17;20.70;;;7.90;;
77018;SDS011;66044;53.142;17.962;2022-12-18T04:08:44;20.90;;;7.90;;
77018;SDS011;66044;53.142;17.962;2022-12-18T04:11:12;23.10;;;8.40;;
77018;SDS011;66044;53.142;17.962;2022-12-18T04:13:39;30.00;;;10.40;;
77018;SDS011;66044;53.142;17.962;2022-12-18T04:16:05;30.90;;;10.40;;
77018;SDS011;66044;53.142;17.962;2022-12-18T04:18:32;24.30;;;9.40;;
77018;SDS011;66044;53.142;17.962;2022-12-18T04:20:58;30.00;;;10.90;;
77018;SDS011;66044;53.142;17.962;2022-12-18T04:23:25;31.10;;;10.60;;
77018;SDS011;66044;53.142;17.962;2022-12-18T04:25:51;33.20;;;9.70;;
77018;SDS011;66044;53.142;17.962;2022-12-18T04:28:18;45.00;;;10.70;;
77018;SDS011;66044;53.142;17.962;2022-12-18T04:30:44;42.10;;;13.00;;
77018;SDS011;66044;53.142;17.962;2022-12-18T04:33:18;33.20;;;10.90;;
77018;SDS011;66044;53.142;17.962;2022-12-18T04:35:45;35.40;;;10.90;;
77018;SDS011;66044;53.142;17.962;2022-12-18T04:38:11;35.40;;;12.00;;
77018;SDS011;66044;53.142;17.962;2022-12-18T04:40:38;31.80;;;10.30;;
77018;SDS011;66044;53.142;17.962;2022-12-18T04:43:05;30.40;;;11.60;;
77018;SDS011;66044;53.142;17.962;2022-12-18T04:45:31;20.20;;;9.20;;
77018;SDS011;66044;53.142;17.962;2022-12-18T04:47:59;27.50;;;10.50;;
77018;SDS011;66044;53.142;17.962;2022-12-18T04:50:26;25.00;;;10.10;;
77018;SDS011;66044;53.142;17.962;2022-12-18T04:52:53;30.50;;;10.90;;
77018;SDS011;66044;53.142;17.962;2022-12-18T04:55:19;28.10;;;10.70;;
77018;SDS011;66044;53.142;17.962;2022-12-18T04:57:46;22.20;;;8.20;;
77018;SDS011;66044;53.142;17.962;2022-12-18T05:00:13;21.10;;;8.30;;
77018;SDS011;66044;53.142;17.962;2022-12-18T05:02:39;30.10;;;11.30;;
77018;SDS011;66044;53.142;17.962;2022-12-18T05:05:06;28.00;;;11.10;;
77018;SDS011;66044;53.142;17.962;2022-12-18T05:07:33;25.10;;;10.20;;
77018;SDS011;66044;53.142;17.962;2022-12-18T05:10:00;39.10;;;12.50;;
77018;SDS011;66044;53.142;17.962;2022-12-18T05:12:26;37.60;;;13.50;;
77018;SDS011;66044;53.142;17.962;2022-12-18T05:14:53;33.60;;;11.40;;
77018;SDS011;66044;53.142;17.962;2022-12-18T05:17:19;34.60;;;11.50;;
77018;SDS011;66044;53.142;17.962;2022-12-18T05:19:46;27.90;;;9.70;;
77018;SDS011;66044;53.142;17.962;2022-12-18T05:22:12;40.10;;;10.70;;
77018;SDS011;66044;53.142;17.962;2022-12-18T05:24:39;53.20;;;13.90;;
77018;SDS011;66044;53.142;17.962;2022-12-18T05:27:05;41.80;;;11.60;;
77018;SDS011;66044;53.142;17.962;2022-12-18T05:29:32;45.90;;;13.30;;
77018;SDS011;66044;53.142;17.962;2022-12-18T05:31:58;37.70;;;12.70;;
77018;SDS011;66044;53.142;17.962;2022-12-18T05:34:25;32.20;;;11.80;;
77018;SDS011;66044;53.142;17.962;2022-12-18T05:36:51;19.90;;;8.10;;
77018;SDS011;66044;53.142;17.962;2022-12-18T05:39:18;22.10;;;8.60;;
77018;SDS011;66044;53.142;17.962;2022-12-18T05:41:44;22.50;;;9.00;;
77018;SDS011;66044;53.142;17.962;2022-12-18T05:44:10;25.40;;;10.30;;
77018;SDS011;66044;53.142;17.962;2022-12-18T05:46:40;24.20;;;9.40;;
77018;SDS011;66044;53.142;17.962;2022-12-18T05:49:06;27.20;;;11.00;;
77018;SDS011;66044;53.142;17.962;2022-12-18T05:51:33;22.10;;;8.60;;
77018;SDS011;66044;53.142;17.962;2022-12-18T05:53:59;35.50;;;11.50;;
77018;SDS011;66044;53.142;17.962;2022-12-18T05:56:26;40.20;;;13.50;;
77018;SDS011;66044;53.142;17.962;2022-12-18T05:58:53;36.80;;;11.90;;
77018;SDS011;66044;53.142;17.962;2022-12-18T06:01:21;34.30;;;12.30;;
77018;SDS011;66044;53.142;17.962;2022-12-18T06:03:50;38.60;;;13.70;;
77018;SDS011;66044;53.142;17.962;2022-12-18T06:06:18;29.10;;;11.20;;
77018;SDS011;66044;53.142;17.962;2022-12-18T06:08:46;36.10;;;12.20;;
77018;SDS011;66044;53.142;17.962;2022-12-18T06:11:15;46.30;;;14.40;;
77018;SDS011;66044;53.142;17.962;2022-12-18T06:13:43;39.00;;;11.70;;
77018;SDS011;66044;53.142;17.962;2022-12-18T06:16:10;34.60;;;11.00;;
77018;SDS011;66044;53.142;17.962;2022-12-18T06:18:37;36.10;;;11.20;;
77018;SDS011;66044;53.142;17.962;2022-12-18T06:21:04;47.90;;;17.90;;
77018;SDS011;66044;53.142;17.962;2022-12-18T06:23:30;43.80;;;19.30;;
77018;SDS011;66044;53.142;17.962;2022-12-18T06:25:57;39.90;;;16.40;;
77018;SDS011;66044;53.142;17.962;2022-12-18T06:28:23;38.90;;;14.20;;
77018;SDS011;66044;53.142;17.962;2022-12-18T06:30:50;44.50;;;14.50;;
77018;SDS011;66044;53.142;17.962;2022-12-18T06:33:16;37.00;;;12.90;;
77018;SDS011;66044;53.142;17.962;2022-12-18T06:35:43;50.90;;;16.40;;
77018;SDS011;66044;53.142;17.962;2022-12-18T06:38:09;43.00;;;13.20;;
77018;SDS011;66044;53.142;17.962;2022-12-18T06:40:37;47.70;;;16.20;;
77018;SDS011;66044;53.142;17.962;2022-12-18T06:43:05;43.30;;;13.30;;
77018;SDS011;66044;53.142;17.962;2022-12-18T06:45:32;49.50;;;14.70;;
77018;SDS011;66044;53.142;17.962;2022-12-18T06:47:59;48.60;;;13.80;;
77018;SDS011;66044;53.142;17.962;2022-12-18T06:50:25;46.30;;;14.30;;
77018;SDS011;66044;53.142;17.962;2022-12-18T06:52:52;42.30;;;12.90;;
77018;SDS011;66044;53.142;17.962;2022-12-18T06:55:18;64.10;;;14.30;;
77018;SDS011;66044;53.142;17.962;2022-12-18T06:57:45;50.50;;;13.50;;
77018;SDS011;66044;53.142;17.962;2022-12-18T07:00:11;47.90;;;13.30;;
77018;SDS011;66044;53.142;17.962;2022-12-18T07:02:38;64.50;;;18.20;;
77018;SDS011;66044;53.142;17.962;2022-12-18T07:05:05;41.10;;;13.70;;
77018;SDS011;66044;53.142;17.962;2022-12-18T07:07:33;29.40;;;10.30;;
77018;SDS011;66044;53.142;17.962;2022-12-18T07:10:00;30.80;;;10.70;;
77018;SDS011;66044;53.142;17.962;2022-12-18T07:12:27;33.00;;;11.60;;
77018;SDS011;66044;53.142;17.962;2022-12-18T07:14:53;28.00;;;10.20;;
77018;SDS011;66044;53.142;17.962;2022-12-18T07:17:20;24.70;;;9.20;;
77018;SDS011;66044;53.142;17.962;2022-12-18T07:19:46;34.30;;;11.80;;
77018;SDS011;66044;53.142;17.962;2022-12-18T07:22:13;22.60;;;8.30;;
77018;SDS011;66044;53.142;17.962;2022-12-18T07:24:39;24.50;;;9.60;;
77018;SDS011;66044;53.142;17.962;2022-12-18T07:27:06;29.70;;;9.80;;
77018;SDS011;66044;53.142;17.962;2022-12-18T07:29:32;27.90;;;9.60;;
77018;SDS011;66044;53.142;17.962;2022-12-18T07:31:58;20.10;;;6.80;;
77018;SDS011;66044;53.142;17.962;2022-12-18T07:34:25;29.70;;;8.40;;
77018;SDS011;66044;53.142;17.962;2022-12-18T07:36:51;44.20;;;10.20;;
77018;SDS011;66044;53.142;17.962;2022-12-18T07:39:18;34.50;;;10.10;;
77018;SDS011;66044;53.142;17.962;2022-12-18T07:41:44;30.80;;;9.60;;
77018;SDS011;66044;53.142;17.962;2022-12-18T07:44:31;23.20;;;8.50;;
77018;SDS011;66044;53.142;17.962;2022-12-18T07:46:57;32.20;;;11.50;;
77018;SDS011;66044;53.142;17.962;2022-12-18T07:49:23;27.80;;;11.10;;
77018;SDS011;66044;53.142;17.962;2022-12-18T07:51:50;27.30;;;9.20;;
77018;SDS011;66044;53.142;17.962;2022-12-18T07:54:16;22.90;;;8.30;;
77018;SDS011;66044;53.142;17.962;2022-12-18T07:56:43;21.30;;;8.50;;
77018;SDS011;66044;53.142;17.962;2022-12-18T07:59:10;26.70;;;11.00;;
77018;SDS011;66044;53.142;17.962;2022-12-18T08:01:36;24.00;;;8.80;;
77018;SDS011;66044;53.142;17.962;2022-12-18T08:04:03;21.00;;;7.10;;
77018;SDS011;66044;53.142;17.962;2022-12-18T08:06:29;19.90;;;7.70;;
77018;SDS011;66044;53.142;17.962;2022-12-18T08:08:56;27.20;;;9.30;;
77018;SDS011;66044;53.142;17.962;2022-12-18T08:11:24;24.50;;;9.70;;
77018;SDS011;66044;53.142;17.962;2022-12-18T08:13:52;23.50;;;8.30;;
77018;SDS011;66044;53.142;17.962;2022-12-18T08:16:19;26.30;;;7.80;;
77018;SDS011;66044;53.142;17.962;2022-12-18T08:18:47;34.20;;;7.70;;
77018;SDS011;66044;53.142;17.962;2022-12-18T08:21:15;37.00;;;10.60;;
77018;SDS011;66044;53.142;17.962;2022-12-18T08:23:44;32.40;;;9.20;;
77018;SDS011;66044;53.142;17.962;2022-12-18T08:26:11;28.30;;;9.30;;
77018;SDS011;66044;53.142;17.962;2022-12-18T08:28:38;17.90;;;7.30;;
77018;SDS011;66044;53.142;17.962;2022-12-18T08:31:05;22.40;;;8.50;;
77018;SDS011;66044;53.142;17.962;2022-12-18T08:33:33;25.00;;;9.60;;
77018;SDS011;66044;53.142;17.962;2022-12-18T08:36:00;24.10;;;9.80;;
77018;SDS011;66044;53.142;17.962;2022-12-18T08:38:28;26.40;;;10.10;;
77018;SDS011;66044;53.142;17.962;2022-12-18T08:41:08;24.00;;;9.00;;
77018;SDS011;66044;53.142;17.962;2022-12-18T08:43:36;29.30;;;11.00;;
77018;SDS011;66044;53.142;17.962;2022-12-18T08:46:22;21.00;;;7.80;;
77018;SDS011;66044;53.142;17.962;2022-12-18T08:48:50;33.30;;;14.40;;
77018;SDS011;66044;53.142;17.962;2022-12-18T08:51:17;33.50;;;10.40;;
77018;SDS011;66044;53.142;17.962;2022-12-18T08:53:44;21.80;;;7.00;;
77018;SDS011;66044;53.142;17.962;2022-12-18T08:56:11;18.80;;;6.00;;
77018;SDS011;66044;53.142;17.962;2022-12-18T08:58:39;32.00;;;9.70;;
77018;SDS011;66044;53.142;17.962;2022-12-18T09:01:07;29.20;;;10.20;;
77018;SDS011;66044;53.142;17.962;2022-12-18T09:03:35;34.00;;;12.60;;
77018;SDS011;66044;53.142;17.962;2022-12-18T09:06:03;32.60;;;12.80;;
77018;SDS011;66044;53.142;17.962;2022-12-18T09:08:30;17.40;;;7.40;;
77018;SDS011;66044;53.142;17.962;2022-12-18T09:10:56;25.80;;;10.60;;
77018;SDS011;66044;53.142;17.962;2022-12-18T09:13:23;21.00;;;8.20;;
77018;SDS011;66044;53.142;17.962;2022-12-18T09:15:51;22.80;;;9.00;;
77018;SDS011;66044;53.142;17.962;2022-12-18T09:18:19;23.50;;;9.10;;
77018;SDS011;66044;53.142;17.962;2022-12-18T09:20:46;26.40;;;9.50;;
77018;SDS011;66044;53.142;17.962;2022-12-18T09:23:13;29.50;;;12.10;;
77018;SDS011;66044;53.142;17.962;2022-12-18T09:25:40;21.70;;;8.90;;
77018;SDS011;66044;53.142;17.962;2022-12-18T09:28:25;21.20;;;7.00;;
77018;SDS011;66044;53.142;17.962;2022-12-18T09:30:52;37.50;;;10.90;;
77018;SDS011;66044;53.142;17.962;2022-12-18T09:33:18;51.30;;;17.60;;
77018;SDS011;66044;53.142;17.962;2022-12-18T09:35:45;45.00;;;15.00;;
77018;SDS011;66044;53.142;17.962;2022-12-18T09:38:13;37.70;;;15.30;;
77018;SDS011;66044;53.142;17.962;2022-12-18T09:40:46;25.90;;;10.00;;
77018;SDS011;66044;53.142;17.962;2022-12-18T09:43:26;17.20;;;6.20;;
77018;SDS011;66044;53.142;17.962;2022-12-18T09:45:59;23.70;;;9.80;;
77018;SDS011;66044;53.142;17.962;2022-12-18T09:48:31;24.00;;;9.00;;
77018;SDS011;66044;53.142;17.962;2022-12-18T09:51:11;27.30;;;9.90;;
77018;SDS011;66044;53.142;17.962;2022-12-18T09:53:44;23.30;;;7.60;;
77018;SDS011;66044;53.142;17.962;2022-12-18T09:56:18;36.20;;;12.50;;
77018;SDS011;66044;53.142;17.962;2022-12-18T09:58:58;31.10;;;10.30;;
77018;SDS011;66044;53.142;17.962;2022-12-18T10:01:27;30.40;;;10.30;;
77018;SDS011;66044;53.142;17.962;2022-12-18T10:03:54;39.60;;;12.70;;
77018;SDS011;66044;53.142;17.962;2022-12-18T10:17:21;23.70;;;8.80;;
77018;SDS011;66044;53.142;17.962;2022-12-18T10:19:51;20.50;;;7.80;;
77018;SDS011;66044;53.142;17.962;2022-12-18T10:25:06;19.30;;;7.30;;
77018;SDS011;66044;53.142;17.962;2022-12-18T10:27:43;17.90;;;7.00;;
77018;SDS011;66044;53.142;17.962;2022-12-18T10:30:17;27.40;;;10.30;;
77018;SDS011;66044;53.142;17.962;2022-12-18T10:32:45;25.10;;;9.80;;
77018;SDS011;66044;53.142;17.962;2022-12-18T10:35:19;30.20;;;11.20;;
77018;SDS011;66044;53.142;17.962;2022-12-18T10:38:00;28.70;;;11.20;;
77018;SDS011;66044;53.142;17.962;2022-12-18T10:40:27;30.00;;;11.60;;
77018;SDS011;66044;53.142;17.962;2022-12-18T10:43:13;19.90;;;7.00;;
77018;SDS011;66044;53.142;17.962;2022-12-18T10:45:41;21.80;;;8.20;;
77018;SDS011;66044;53.142;17.962;2022-12-18T10:48:19;19.90;;;5.70;;
77018;SDS011;66044;53.142;17.962;2022-12-18T10:50:48;27.10;;;10.50;;
77018;SDS011;66044;53.142;17.962;2022-12-18T10:53:19;24.20;;;9.30;;
77018;SDS011;66044;53.142;17.962;2022-12-18T10:55:55;23.20;;;9.20;;
77018;SDS011;66044;53.142;17.962;2022-12-18T11:03:33;19.70;;;7.40;;
77018;SDS011;66044;53.142;17.962;2022-12-18T11:06:12;22.20;;;8.00;;
77018;SDS011;66044;53.142;17.962;2022-12-18T11:08:41;26.10;;;7.00;;
77018;SDS011;66044;53.142;17.962;2022-12-18T11:11:19;39.30;;;11.10;;
77018;SDS011;66044;53.142;17.962;2022-12-18T11:16:25;37.20;;;13.10;;
77018;SDS011;66044;53.142;17.962;2022-12-18T11:18:53;43.80;;;15.70;;
77018;SDS011;66044;53.142;17.962;2022-12-18T11:21:20;41.20;;;15.20;;
77018;SDS011;66044;53.142;17.962;2022-12-18T11:23:49;31.00;;;12.50;;
77018;SDS011;66044;53.142;17.962;2022-12-18T11:26:17;44.60;;;15.50;;
77018;SDS011;66044;53.142;17.962;2022-12-18T11:33:54;32.60;;;11.10;;
77018;SDS011;66044;53.142;17.962;2022-12-18T11:36:28;50.20;;;17.50;;
77018;SDS011;66044;53.142;17.962;2022-12-18T11:38:59;38.80;;;13.70;;
77018;SDS011;66044;53.142;17.962;2022-12-18T11:41:39;43.50;;;15.50;;
77018;SDS011;66044;53.142;17.962;2022-12-18T11:44:35;23.50;;;9.50;;
77018;SDS011;66044;53.142;17.962;2022-12-18T11:50:00;56.60;;;16.70;;
77018;SDS011;66044;53.142;17.962;2022-12-18T11:52:35;45.10;;;11.70;;
77018;SDS011;66044;53.142;17.962;2022-12-18T11:55:10;51.40;;;16.30;;
77018;SDS011;66044;53.142;17.962;2022-12-18T11:57:46;40.80;;;13.30;;
77018;SDS011;66044;53.142;17.962;2022-12-18T12:00:23;33.00;;;11.60;;
77018;SDS011;66044;53.142;17.962;2022-12-18T12:08:05;44.10;;;14.70;;
77018;SDS011;66044;53.142;17.962;2022-12-18T12:11:07;33.50;;;13.00;;
77018;SDS011;66044;53.142;17.962;2022-12-18T12:16:29;38.20;;;13.10;;
77018;SDS011;66044;53.142;17.962;2022-12-18T12:21:43;50.80;;;15.90;;
77018;SDS011;66044;53.142;17.962;2022-12-18T12:24:37;38.60;;;13.30;;
77018;SDS011;66044;53.142;17.962;2022-12-18T12:30:13;44.00;;;12.20;;
77018;SDS011;66044;53.142;17.962;2022-12-18T12:39:05;39.10;;;14.00;;
77018;SDS011;66044;53.142;17.962;2022-12-18T12:41:25;28.10;;;10.90;;
77018;SDS011;66044;53.142;17.962;2022-12-18T12:44:20;43.70;;;16.40;;
77018;SDS011;66044;53.142;17.962;2022-12-18T12:46:51;48.10;;;15.80;;
77018;SDS011;66044;53.142;17.962;2022-12-18T12:49:26;49.00;;;14.50;;
77018;SDS011;66044;53.142;17.962;2022-12-18T12:52:11;54.50;;;17.60;;
77018;SDS011;66044;53.142;17.962;2022-12-18T12:54:40;48.80;;;17.60;;
77018;SDS011;66044;53.142;17.962;2022-12-18T12:59:47;45.80;;;15.00;;
77018;SDS011;66044;53.142;17.962;2022-12-18T13:08:09;37.80;;;9.80;;
77018;SDS011;66044;53.142;17.962;2022-12-18T13:10:39;61.30;;;17.40;;
77018;SDS011;66044;53.142;17.962;2022-12-18T13:15:39;39.00;;;14.20;;
77018;SDS011;66044;53.142;17.962;2022-12-18T13:20:44;39.30;;;15.50;;
77018;SDS011;66044;53.142;17.962;2022-12-18T13:23:26;29.90;;;11.20;;
77018;SDS011;66044;53.142;17.962;2022-12-18T13:25:58;31.20;;;10.70;;
77018;SDS011;66044;53.142;17.962;2022-12-18T13:31:14;36.90;;;12.80;;
77018;SDS011;66044;53.142;17.962;2022-12-18T13:33:49;48.10;;;12.70;;
77018;SDS011;66044;53.142;17.962;2022-12-18T13:41:40;85.40;;;25.20;;
77018;SDS011;66044;53.142;17.962;2022-12-18T13:44:12;70.70;;;21.10;;
77018;SDS011;66044;53.142;17.962;2022-12-18T13:46:48;41.10;;;13.40;;
77018;SDS011;66044;53.142;17.962;2022-12-18T13:49:24;35.10;;;12.70;;
77018;SDS011;66044;53.142;17.962;2022-12-18T13:52:16;35.60;;;12.10;;
77018;SDS011;66044;53.142;17.962;2022-12-18T13:54:47;44.10;;;14.80;;
77018;SDS011;66044;53.142;17.962;2022-12-18T14:02:50;55.10;;;20.50;;
77018;SDS011;66044;53.142;17.962;2022-12-18T14:07:51;39.30;;;14.90;;
77018;SDS011;66044;53.142;17.962;2022-12-18T14:10:19;37.80;;;12.60;;
77018;SDS011;66044;53.142;17.962;2022-12-18T14:12:47;43.30;;;12.10;;
77018;SDS011;66044;53.142;17.962;2022-12-18T14:15:40;32.60;;;9.80;;
77018;SDS011;66044;53.142;17.962;2022-12-18T14:18:18;33.50;;;10.70;;
77018;SDS011;66044;53.142;17.962;2022-12-18T14:20:57;26.00;;;7.40;;
77018;SDS011;66044;53.142;17.962;2022-12-18T14:28:57;34.80;;;12.80;;
77018;SDS011;66044;53.142;17.962;2022-12-18T14:31:28;42.60;;;15.80;;
77018;SDS011;66044;53.142;17.962;2022-12-18T14:33:56;31.60;;;11.80;;
77018;SDS011;66044;53.142;17.962;2022-12-18T14:36:26;25.80;;;8.50;;
77018;SDS011;66044;53.142;17.962;2022-12-18T14:38:55;42.80;;;12.80;;
77018;SDS011;66044;53.142;17.962;2022-12-18T14:41:24;38.90;;;10.60;;
77018;SDS011;66044;53.142;17.962;2022-12-18T14:43:52;36.40;;;10.40;;
77018;SDS011;66044;53.142;17.962;2022-12-18T14:48:59;40.00;;;12.70;;
77018;SDS011;66044;53.142;17.962;2022-12-18T14:51:28;39.20;;;14.10;;
77018;SDS011;66044;53.142;17.962;2022-12-18T14:54:02;21.60;;;7.40;;
77018;SDS011;66044;53.142;17.962;2022-12-18T14:56:31;21.10;;;6.60;;
77018;SDS011;66044;53.142;17.962;2022-12-18T14:59:00;35.50;;;8.60;;
77018;SDS011;66044;53.142;17.962;2022-12-18T15:01:30;34.90;;;9.40;;
77018;SDS011;66044;53.142;17.962;2022-12-18T15:04:00;27.30;;;9.10;;
77018;SDS011;66044;53.142;17.962;2022-12-18T15:06:33;26.60;;;10.40;;
77018;SDS011;66044;53.142;17.962;2022-12-18T15:09:23;27.70;;;9.30;;
77018;SDS011;66044;53.142;17.962;2022-12-18T15:11:55;33.70;;;11.30;;
77018;SDS011;66044;53.142;17.962;2022-12-18T15:16:56;23.80;;;8.30;;
77018;SDS011;66044;53.142;17.962;2022-12-18T15:19:35;36.30;;;10.10;;
77018;SDS011;66044;53.142;17.962;2022-12-18T15:22:14;46.10;;;12.10;;
77018;SDS011;66044;53.142;17.962;2022-12-18T15:24:45;25.40;;;8.30;;
77018;SDS011;66044;53.142;17.962;2022-12-18T15:27:46;30.60;;;10.00;;
77018;SDS011;66044;53.142;17.962;2022-12-18T15:32:31;27.70;;;8.80;;
77018;SDS011;66044;53.142;17.962;2022-12-18T15:37:40;26.30;;;6.40;;
77018;SDS011;66044;53.142;17.962;2022-12-18T15:40:17;30.50;;;7.10;;
77018;SDS011;66044;53.142;17.962;2022-12-18T15:42:46;48.30;;;12.20;;
77018;SDS011;66044;53.142;17.962;2022-12-18T15:45:33;32.10;;;8.90;;
77018;SDS011;66044;53.142;17.962;2022-12-18T15:48:06;41.30;;;12.60;;
77018;SDS011;66044;53.142;17.962;2022-12-18T15:50:41;30.70;;;9.50;;
77018;SDS011;66044;53.142;17.962;2022-12-18T15:53:07;20.30;;;5.90;;
77018;SDS011;66044;53.142;17.962;2022-12-18T15:55:35;28.20;;;9.70;;
77018;SDS011;66044;53.142;17.962;2022-12-18T15:58:20;33.20;;;11.10;;
77018;SDS011;66044;53.142;17.962;2022-12-18T16:00:46;33.50;;;11.50;;
77018;SDS011;66044;53.142;17.962;2022-12-18T16:03:13;33.30;;;10.20;;
77018;SDS011;66044;53.142;17.962;2022-12-18T16:05:40;34.50;;;10.00;;
77018;SDS011;66044;53.142;17.962;2022-12-18T16:08:06;47.60;;;13.10;;
77018;SDS011;66044;53.142;17.962;2022-12-18T16:10:33;36.10;;;10.60;;
77018;SDS011;66044;53.142;17.962;2022-12-18T16:12:59;43.20;;;13.90;;
77018;SDS011;66044;53.142;17.962;2022-12-18T16:15:26;43.40;;;13.10;;
77018;SDS011;66044;53.142;17.962;2022-12-18T16:17:52;33.40;;;9.50;;
77018;SDS011;66044;53.142;17.962;2022-12-18T16:20:20;31.60;;;10.50;;
77018;SDS011;66044;53.142;17.962;2022-12-18T16:22:48;47.20;;;14.70;;
77018;SDS011;66044;53.142;17.962;2022-12-18T16:25:25;33.10;;;10.50;;